createdAt,value
2017-04-21T00:00:04.549Z,23.67
2017-04-21T00:00:23.289Z,23.6
2017-04-21T00:00:42.628Z,23.61
2017-04-21T00:01:01.955Z,23.56
2017-04-21T00:01:20.715Z,23.63
2017-04-21T00:01:39.975Z,23.58
2017-04-21T00:01:59.260Z,23.61
2017-04-21T00:02:18.538Z,23.6
2017-04-21T00:02:37.832Z,23.55
2017-04-21T00:02:57.221Z,23.5
2017-04-21T00:03:16.481Z,23.49
2017-04-21T00:03:35.769Z,23.6
2017-04-21T00:03:54.676Z,23.49
2017-04-21T00:04:13.914Z,23.53
2017-04-21T00:04:33.208Z,23.53
2017-04-21T00:04:51.983Z,23.52
2017-04-21T00:05:11.391Z,23.48
2017-04-21T00:05:30.625Z,23.46
2017-04-21T00:05:49.909Z,23.53
2017-04-21T00:06:08.793Z,23.48
2017-04-21T00:06:27.732Z,23.45
2017-04-21T00:06:47.021Z,23.43
2017-04-21T00:07:06.306Z,23.42
2017-04-21T00:07:25.581Z,23.55
2017-04-21T00:07:44.882Z,23.46
2017-04-21T00:08:04.149Z,23.48
2017-04-21T00:08:23.421Z,23.42
2017-04-21T00:08:42.724Z,23.45
2017-04-21T00:09:02.024Z,23.52
2017-04-21T00:09:21.316Z,23.45
2017-04-21T00:09:40.699Z,23.38
2017-04-21T00:09:59.977Z,23.43
2017-04-21T00:10:19.239Z,23.4
2017-04-21T00:10:38.558Z,23.43
2017-04-21T00:10:57.936Z,23.43
2017-04-21T00:11:17.281Z,23.48
2017-04-21T00:11:36.059Z,23.42
2017-04-21T00:11:55.338Z,23.37
2017-04-21T00:12:14.651Z,23.38
2017-04-21T00:12:33.968Z,23.48
2017-04-21T00:12:53.278Z,23.43
2017-04-21T00:13:12.530Z,23.38
2017-04-21T00:13:31.791Z,23.45
2017-04-21T00:13:51.056Z,23.48
2017-04-21T00:14:10.540Z,23.33
2017-04-21T00:14:29.309Z,23.42
2017-04-21T00:14:48.082Z,23.38
2017-04-21T00:15:07.377Z,23.4
2017-04-21T00:15:26.207Z,23.37
2017-04-21T00:15:45.477Z,23.4
2017-04-21T00:16:04.740Z,23.37
2017-04-21T00:16:23.506Z,23.4
2017-04-21T00:16:42.281Z,23.34
2017-04-21T00:17:01.566Z,23.34
2017-04-21T00:17:20.844Z,23.33
2017-04-21T00:17:40.122Z,23.26
2017-04-21T00:17:59.562Z,23.35
2017-04-21T00:18:18.311Z,23.35
2017-04-21T00:18:37.652Z,23.38
2017-04-21T00:18:57.119Z,23.4
2017-04-21T00:19:16.440Z,23.38
2017-04-21T00:19:35.705Z,23.38
2017-04-21T00:19:54.548Z,23.37
2017-04-21T00:20:13.808Z,23.27
2017-04-21T00:20:33.093Z,23.31
2017-04-21T00:20:51.840Z,23.31
2017-04-21T00:21:11.069Z,23.31
2017-04-21T00:21:30.360Z,23.27
2017-04-21T00:21:49.618Z,23.17
2017-04-21T00:22:08.422Z,23.29
2017-04-21T00:22:27.680Z,23.24
2017-04-21T00:22:46.954Z,23.2
2017-04-21T00:23:05.760Z,23.18
2017-04-21T00:23:25.093Z,23.26
2017-04-21T00:23:44.384Z,23.24
2017-04-21T00:24:03.675Z,23.18
2017-04-21T00:24:22.959Z,23.18
2017-04-21T00:24:42.249Z,23.14
2017-04-21T00:25:01.527Z,23.07
2017-04-21T00:25:20.812Z,23.09
2017-04-21T00:25:40.088Z,23.09
2017-04-21T00:25:58.876Z,23.18
2017-04-21T00:26:17.624Z,23.11
2017-04-21T00:26:35.887Z,23.26
2017-04-21T00:26:55.130Z,23.2
2017-04-21T00:27:14.392Z,23.2
2017-04-21T00:27:33.175Z,23.2
2017-04-21T00:27:52.487Z,23.15
2017-04-21T00:28:11.741Z,23.22
2017-04-21T00:28:30.992Z,23.22
2017-04-21T00:28:50.263Z,23.18
2017-04-21T00:29:09.671Z,23.17
2017-04-21T00:29:28.434Z,23.17
2017-04-21T00:29:47.738Z,23.22
2017-04-21T00:30:07.023Z,23.2
2017-04-21T00:30:25.769Z,23.15
2017-04-21T00:30:44.562Z,23.04
2017-04-21T00:31:03.823Z,23.09
2017-04-21T00:31:23.121Z,23.14
2017-04-21T00:31:41.855Z,23.05
2017-04-21T00:32:01.111Z,23.11
2017-04-21T00:32:19.884Z,23.09
2017-04-21T00:32:39.170Z,23.14
2017-04-21T00:32:58.436Z,23.09
2017-04-21T00:33:17.726Z,23.08
2017-04-21T00:33:36.982Z,23.09
2017-04-21T00:33:56.233Z,23.09
2017-04-21T00:34:14.992Z,23.11
2017-04-21T00:34:33.779Z,23.02
2017-04-21T00:34:53.085Z,23.05
2017-04-21T00:35:11.860Z,23.07
2017-04-21T00:35:31.126Z,22.96
2017-04-21T00:35:50.558Z,23
2017-04-21T00:36:09.295Z,22.99
2017-04-21T00:36:28.606Z,22.93
2017-04-21T00:36:47.891Z,22.99
2017-04-21T00:37:07.214Z,22.99
2017-04-21T00:37:26.502Z,23.04
2017-04-21T00:37:45.767Z,22.99
2017-04-21T00:38:05.264Z,22.96
2017-04-21T00:38:24.606Z,22.96
2017-04-21T00:38:43.880Z,22.94
2017-04-21T00:39:03.156Z,22.93
2017-04-21T00:39:22.466Z,22.94
2017-04-21T00:39:41.723Z,22.94
2017-04-21T00:40:00.991Z,22.93
2017-04-21T00:40:19.242Z,22.92
2017-04-21T00:40:38.515Z,22.9
2017-04-21T00:40:57.799Z,22.92
2017-04-21T00:41:17.044Z,22.99
2017-04-21T00:41:36.493Z,22.97
2017-04-21T00:41:55.798Z,22.93
2017-04-21T00:42:14.576Z,22.9
2017-04-21T00:42:33.855Z,22.87
2017-04-21T00:42:53.110Z,22.86
2017-04-21T00:43:12.399Z,22.86
2017-04-21T00:43:31.663Z,22.89
2017-04-21T00:43:50.969Z,22.9
2017-04-21T00:44:10.210Z,22.86
2017-04-21T00:44:29.498Z,22.79
2017-04-21T00:44:48.789Z,22.74
2017-04-21T00:45:08.090Z,22.79
2017-04-21T00:45:27.353Z,22.78
2017-04-21T00:45:46.636Z,22.75
2017-04-21T00:46:05.899Z,22.71
2017-04-21T00:46:25.145Z,22.74
2017-04-21T00:46:44.422Z,22.72
2017-04-21T00:47:03.700Z,22.71
2017-04-21T00:47:23.018Z,22.75
2017-04-21T00:47:42.278Z,22.71
2017-04-21T00:48:01.532Z,22.75
2017-04-21T00:48:20.793Z,22.77
2017-04-21T00:48:39.557Z,22.72
2017-04-21T00:48:58.835Z,22.69
2017-04-21T00:49:18.095Z,22.69
2017-04-21T00:49:35.837Z,22.69
2017-04-21T00:49:55.106Z,22.72
2017-04-21T00:50:14.794Z,22.72
2017-04-21T00:50:34.084Z,22.68
2017-04-21T00:50:53.390Z,22.69
2017-04-21T00:51:12.691Z,22.68
2017-04-21T00:51:32.020Z,22.69
2017-04-21T00:51:51.440Z,22.72
2017-04-21T00:52:10.685Z,22.71
2017-04-21T00:52:29.948Z,22.69
2017-04-21T00:52:49.411Z,22.72
2017-04-21T00:53:08.735Z,22.71
2017-04-21T00:53:28.010Z,22.68
2017-04-21T00:53:47.316Z,22.68
2017-04-21T00:54:06.668Z,22.65
2017-04-21T00:54:25.981Z,22.63
2017-04-21T00:54:45.241Z,22.6
2017-04-21T00:55:04.695Z,22.54
2017-04-21T00:55:23.982Z,22.67
2017-04-21T00:55:43.245Z,22.57
2017-04-21T00:56:02.522Z,22.57
2017-04-21T00:56:21.791Z,22.59
2017-04-21T00:56:41.075Z,22.59
2017-04-21T00:56:59.821Z,22.56
2017-04-21T00:57:19.166Z,22.59
2017-04-21T00:57:38.464Z,22.56
2017-04-21T00:57:57.938Z,22.57
2017-04-21T00:58:17.193Z,22.56
2017-04-21T00:58:35.460Z,22.56
2017-04-21T00:58:54.744Z,22.6
2017-04-21T00:59:14.028Z,22.54
2017-04-21T00:59:33.295Z,22.59
2017-04-21T00:59:52.604Z,22.59
2017-04-21T01:00:11.397Z,22.6
2017-04-21T01:00:30.718Z,22.57
2017-04-21T01:00:49.783Z,22.56
2017-04-21T01:01:09.058Z,22.52
2017-04-21T01:01:27.752Z,22.54
2017-04-21T01:01:47.006Z,22.59
2017-04-21T01:02:06.295Z,22.53
2017-04-21T01:02:25.564Z,22.54
2017-04-21T01:02:44.316Z,22.42
2017-04-21T01:03:03.701Z,22.47
2017-04-21T01:03:22.970Z,22.44
2017-04-21T01:03:42.276Z,22.46
2017-04-21T01:04:01.564Z,22.46
2017-04-21T01:04:21.077Z,22.46
2017-04-21T01:04:40.325Z,22.39
2017-04-21T01:04:59.590Z,22.41
2017-04-21T01:05:18.863Z,22.39
2017-04-21T01:05:37.647Z,22.35
2017-04-21T01:05:56.876Z,22.32
2017-04-21T01:06:16.173Z,22.32
2017-04-21T01:06:35.438Z,22.32
2017-04-21T01:06:53.656Z,22.37
2017-04-21T01:07:12.918Z,22.37
2017-04-21T01:07:31.699Z,22.39
2017-04-21T01:07:50.935Z,22.34
2017-04-21T01:08:10.208Z,22.34
2017-04-21T01:08:29.501Z,22.32
2017-04-21T01:08:48.248Z,22.3
2017-04-21T01:09:07.548Z,22.37
2017-04-21T01:09:26.830Z,22.37
2017-04-21T01:09:46.197Z,22.35
2017-04-21T01:10:05.471Z,22.32
2017-04-21T01:10:24.217Z,22.32
2017-04-21T01:10:43.478Z,22.35
2017-04-21T01:11:02.776Z,22.37
2017-04-21T01:11:22.052Z,22.34
2017-04-21T01:11:41.326Z,22.37
2017-04-21T01:12:00.583Z,22.32
2017-04-21T01:12:19.353Z,22.35
2017-04-21T01:12:38.651Z,22.31
2017-04-21T01:12:58.009Z,22.34
2017-04-21T01:13:16.808Z,22.31
2017-04-21T01:13:36.048Z,22.35
2017-04-21T01:13:55.371Z,22.38
2017-04-21T01:14:14.627Z,22.32
2017-04-21T01:14:33.934Z,22.38
2017-04-21T01:14:53.226Z,22.37
2017-04-21T01:15:12.503Z,22.34
2017-04-21T01:15:31.765Z,22.34
2017-04-21T01:15:51.046Z,22.17
2017-04-21T01:16:09.810Z,22.28
2017-04-21T01:16:29.034Z,22.23
2017-04-21T01:16:48.463Z,22.28
2017-04-21T01:17:07.728Z,22.2
2017-04-21T01:17:27.002Z,22.24
2017-04-21T01:17:46.275Z,22.22
2017-04-21T01:18:05.202Z,22.28
2017-04-21T01:18:24.464Z,22.24
2017-04-21T01:18:43.748Z,22.19
2017-04-21T01:19:03.064Z,22.26
2017-04-21T01:19:22.313Z,22.26
2017-04-21T01:19:41.602Z,22.28
2017-04-21T01:20:00.912Z,22.28
2017-04-21T01:20:20.197Z,22.22
2017-04-21T01:20:39.429Z,22.26
2017-04-21T01:20:58.664Z,22.2
2017-04-21T01:21:17.922Z,22.23
2017-04-21T01:21:37.221Z,22.22
2017-04-21T01:21:56.520Z,22.23
2017-04-21T01:22:15.443Z,22.2
2017-04-21T01:22:34.833Z,22.22
2017-04-21T01:22:54.086Z,22.22
2017-04-21T01:23:13.354Z,22.35
2017-04-21T01:23:32.121Z,22.17
2017-04-21T01:23:51.388Z,22.19
2017-04-21T01:24:10.638Z,22.19
2017-04-21T01:24:29.402Z,22.16
2017-04-21T01:24:48.798Z,22.19
2017-04-21T01:25:08.058Z,22.17
2017-04-21T01:25:26.793Z,22.19
2017-04-21T01:25:46.059Z,22.19
2017-04-21T01:26:05.294Z,22.2
2017-04-21T01:26:24.542Z,22.17
2017-04-21T01:26:43.837Z,22.17
2017-04-21T01:27:03.306Z,22.16
2017-04-21T01:27:22.578Z,22.2
2017-04-21T01:27:41.843Z,22.15
2017-04-21T01:28:01.610Z,22.15
2017-04-21T01:28:20.889Z,22.19
2017-04-21T01:28:40.134Z,22.17
2017-04-21T01:28:59.394Z,22.16
2017-04-21T01:29:18.694Z,22.2
2017-04-21T01:29:38.001Z,22.15
2017-04-21T01:29:57.277Z,22.15
2017-04-21T01:30:16.572Z,22.12
2017-04-21T01:30:35.882Z,22.13
2017-04-21T01:30:55.150Z,22.13
2017-04-21T01:31:13.889Z,22.13
2017-04-21T01:31:33.144Z,22.1
2017-04-21T01:31:52.433Z,22
2017-04-21T01:32:11.704Z,22.05
2017-04-21T01:32:31.127Z,22.17
2017-04-21T01:32:50.428Z,22.15
2017-04-21T01:33:09.738Z,22.12
2017-04-21T01:33:28.984Z,22.05
2017-04-21T01:33:48.241Z,22.05
2017-04-21T01:34:07.002Z,22.05
2017-04-21T01:34:25.228Z,22.01
2017-04-21T01:34:44.672Z,22.07
2017-04-21T01:35:03.954Z,22.04
2017-04-21T01:35:23.241Z,22.07
2017-04-21T01:35:42.007Z,22.02
2017-04-21T01:36:01.301Z,22.02
2017-04-21T01:36:20.043Z,22.04
2017-04-21T01:36:39.317Z,21.98
2017-04-21T01:36:58.588Z,22
2017-04-21T01:37:17.856Z,21.92
2017-04-21T01:37:37.113Z,22.04
2017-04-21T01:37:56.358Z,22.04
2017-04-21T01:38:15.629Z,22
2017-04-21T01:38:34.877Z,21.98
2017-04-21T01:38:54.183Z,21.95
2017-04-21T01:39:13.480Z,21.98
2017-04-21T01:39:31.863Z,21.92
2017-04-21T01:39:50.599Z,21.92
2017-04-21T01:40:09.340Z,21.95
2017-04-21T01:40:28.593Z,21.97
2017-04-21T01:40:47.351Z,21.91
2017-04-21T01:41:06.641Z,21.95
2017-04-21T01:41:25.931Z,21.91
2017-04-21T01:41:45.232Z,21.98
2017-04-21T01:42:04.498Z,21.97
2017-04-21T01:42:23.258Z,21.94
2017-04-21T01:42:42.658Z,22
2017-04-21T01:43:02.405Z,21.89
2017-04-21T01:43:21.708Z,21.97
2017-04-21T01:43:40.983Z,21.98
2017-04-21T01:44:00.344Z,21.94
2017-04-21T01:44:19.619Z,21.97
2017-04-21T01:44:38.868Z,21.91
2017-04-21T01:44:57.633Z,21.92
2017-04-21T01:45:16.868Z,21.82
2017-04-21T01:45:36.148Z,21.86
2017-04-21T01:45:55.450Z,21.89
2017-04-21T01:46:14.744Z,21.86
2017-04-21T01:46:34.038Z,21.82
2017-04-21T01:46:53.298Z,21.91
2017-04-21T01:47:12.548Z,21.89
2017-04-21T01:47:32.082Z,21.91
2017-04-21T01:47:51.362Z,21.95
2017-04-21T01:48:10.631Z,21.84
2017-04-21T01:48:29.909Z,21.89
2017-04-21T01:48:49.170Z,21.82
2017-04-21T01:49:07.918Z,21.91
2017-04-21T01:49:27.165Z,21.85
2017-04-21T01:49:46.523Z,21.86
2017-04-21T01:50:05.295Z,21.85
2017-04-21T01:50:24.601Z,21.89
2017-04-21T01:50:43.861Z,21.81
2017-04-21T01:51:03.117Z,21.85
2017-04-21T01:51:22.402Z,21.91
2017-04-21T01:51:41.686Z,21.91
2017-04-21T01:52:01.134Z,21.79
2017-04-21T01:52:20.423Z,21.86
2017-04-21T01:52:39.152Z,21.86
2017-04-21T01:52:58.448Z,21.91
2017-04-21T01:53:17.233Z,21.82
2017-04-21T01:53:36.515Z,21.92
2017-04-21T01:53:55.794Z,21.86
2017-04-21T01:54:15.250Z,21.84
2017-04-21T01:54:34.557Z,21.89
2017-04-21T01:54:53.311Z,21.86
2017-04-21T01:55:12.817Z,21.85
2017-04-21T01:55:32.089Z,21.81
2017-04-21T01:55:50.862Z,21.89
2017-04-21T01:56:10.104Z,21.86
2017-04-21T01:56:29.371Z,21.85
2017-04-21T01:56:48.639Z,21.75
2017-04-21T01:57:07.915Z,21.82
2017-04-21T01:57:26.684Z,21.82
2017-04-21T01:57:45.934Z,21.74
2017-04-21T01:58:05.011Z,21.82
2017-04-21T01:58:24.290Z,21.78
2017-04-21T01:58:43.501Z,21.86
2017-04-21T01:59:02.785Z,21.74
2017-04-21T01:59:22.095Z,21.91
2017-04-21T01:59:40.891Z,21.74
2017-04-21T02:00:00.192Z,21.78
2017-04-21T02:00:18.988Z,21.74
2017-04-21T02:00:37.764Z,21.78
2017-04-21T02:00:56.540Z,21.72
2017-04-21T02:01:15.789Z,21.75
2017-04-21T02:01:34.613Z,21.84
2017-04-21T02:01:53.902Z,21.72
2017-04-21T02:02:13.187Z,21.76
2017-04-21T02:02:31.955Z,21.78
2017-04-21T02:02:50.740Z,21.78
2017-04-21T02:03:10.010Z,21.76
2017-04-21T02:03:29.295Z,21.66
2017-04-21T02:03:48.498Z,21.72
2017-04-21T02:04:07.238Z,21.76
2017-04-21T02:04:26.244Z,21.75
2017-04-21T02:04:45.000Z,21.69
2017-04-21T02:05:03.719Z,21.76
2017-04-21T02:05:22.986Z,21.7
2017-04-21T02:05:42.255Z,21.7
2017-04-21T02:06:04.571Z,21.72
2017-04-21T02:06:23.834Z,21.69
2017-04-21T02:06:43.417Z,21.66
2017-04-21T02:07:02.680Z,21.61
2017-04-21T02:07:21.967Z,21.66
2017-04-21T02:07:40.749Z,21.64
2017-04-21T02:08:00.052Z,21.6
2017-04-21T02:08:19.339Z,21.56
2017-04-21T02:08:38.598Z,21.63
2017-04-21T02:08:57.881Z,21.57
2017-04-21T02:09:17.124Z,21.61
2017-04-21T02:09:36.397Z,21.6
2017-04-21T02:09:55.680Z,21.57
2017-04-21T02:10:14.939Z,21.61
2017-04-21T02:10:34.221Z,21.66
2017-04-21T02:10:52.469Z,21.53
2017-04-21T02:11:11.749Z,21.54
2017-04-21T02:11:30.981Z,21.53
2017-04-21T02:11:49.720Z,21.48
2017-04-21T02:12:08.977Z,21.53
2017-04-21T02:12:27.715Z,21.54
2017-04-21T02:12:46.488Z,21.46
2017-04-21T02:13:06.220Z,21.51
2017-04-21T02:13:23.935Z,21.48
2017-04-21T02:13:42.726Z,21.48
2017-04-21T02:14:02.005Z,21.48
2017-04-21T02:14:21.311Z,21.51
2017-04-21T02:14:40.627Z,21.49
2017-04-21T02:14:59.913Z,21.45
2017-04-21T02:15:18.158Z,21.51
2017-04-21T02:15:37.600Z,21.49
2017-04-21T02:15:56.848Z,21.49
2017-04-21T02:16:16.117Z,21.48
2017-04-21T02:16:35.319Z,21.38
2017-04-21T02:16:54.588Z,21.48
2017-04-21T02:17:13.841Z,21.35
2017-04-21T02:17:32.106Z,21.42
2017-04-21T02:17:51.397Z,21.46
2017-04-21T02:18:10.277Z,21.45
2017-04-21T02:18:29.576Z,21.49
2017-04-21T02:18:48.882Z,21.42
2017-04-21T02:19:08.205Z,21.44
2017-04-21T02:19:27.488Z,21.42
2017-04-21T02:19:46.748Z,21.39
2017-04-21T02:20:05.050Z,21.39
2017-04-21T02:20:24.295Z,21.39
2017-04-21T02:20:43.581Z,21.44
2017-04-21T02:21:02.856Z,21.33
2017-04-21T02:21:22.146Z,21.33
2017-04-21T02:21:41.429Z,21.31
2017-04-21T02:22:00.762Z,21.38
2017-04-21T02:22:19.515Z,21.36
2017-04-21T02:22:38.792Z,21.36
2017-04-21T02:22:58.067Z,21.31
2017-04-21T02:23:17.528Z,21.35
2017-04-21T02:23:36.798Z,21.3
2017-04-21T02:23:56.088Z,21.31
2017-04-21T02:24:14.873Z,21.39
2017-04-21T02:24:34.146Z,21.41
2017-04-21T02:24:53.414Z,21.39
2017-04-21T02:25:12.667Z,21.35
2017-04-21T02:25:31.932Z,21.33
2017-04-21T02:25:50.709Z,21.31
2017-04-21T02:26:09.972Z,21.26
2017-04-21T02:26:29.256Z,21.33
2017-04-21T02:26:48.537Z,21.36
2017-04-21T02:27:07.810Z,21.26
2017-04-21T02:27:27.054Z,21.27
2017-04-21T02:27:46.333Z,21.27
2017-04-21T02:28:05.611Z,21.31
2017-04-21T02:28:24.878Z,21.41
2017-04-21T02:28:44.144Z,21.33
2017-04-21T02:29:03.452Z,21.27
2017-04-21T02:29:22.903Z,21.26
2017-04-21T02:29:42.195Z,21.35
2017-04-21T02:30:01.470Z,21.24
2017-04-21T02:30:20.206Z,21.21
2017-04-21T02:30:39.499Z,21.44
2017-04-21T02:30:58.752Z,21.21
2017-04-21T02:31:18.001Z,21.38
2017-04-21T02:31:37.357Z,21.29
2017-04-21T02:31:56.622Z,21.3
2017-04-21T02:32:15.388Z,21.31
2017-04-21T02:32:34.666Z,21.35
2017-04-21T02:32:53.937Z,21.3
2017-04-21T02:33:12.864Z,21.2
2017-04-21T02:33:32.136Z,21.27
2017-04-21T02:33:51.442Z,21.3
2017-04-21T02:34:10.194Z,21.24
2017-04-21T02:34:28.945Z,21.23
2017-04-21T02:34:48.216Z,21.27
2017-04-21T02:35:07.287Z,21.23
2017-04-21T02:35:26.536Z,21.3
2017-04-21T02:35:45.842Z,21.27
2017-04-21T02:36:04.590Z,21.24
2017-04-21T02:36:23.805Z,21.36
2017-04-21T02:36:43.052Z,21.29
2017-04-21T02:37:02.329Z,21.31
2017-04-21T02:37:21.610Z,21.23
2017-04-21T02:37:40.401Z,21.26
2017-04-21T02:37:59.657Z,21.26
2017-04-21T02:38:18.440Z,21.26
2017-04-21T02:38:37.709Z,21.19
2017-04-21T02:38:56.490Z,21.24
2017-04-21T02:39:15.724Z,21.17
2017-04-21T02:39:35.087Z,21.21
2017-04-21T02:39:53.312Z,21.21
2017-04-21T02:40:12.606Z,21.14
2017-04-21T02:40:32.072Z,21.26
2017-04-21T02:40:50.840Z,21.2
2017-04-21T02:41:10.485Z,21.16
2017-04-21T02:41:29.247Z,21.24
2017-04-21T02:41:48.511Z,21.2
2017-04-21T02:42:07.792Z,21.2
2017-04-21T02:42:27.034Z,21.21
2017-04-21T02:42:46.341Z,21.23
2017-04-21T02:43:05.189Z,21.21
2017-04-21T02:43:24.515Z,21.21
2017-04-21T02:43:43.796Z,21.24
2017-04-21T02:44:03.100Z,21.21
2017-04-21T02:44:21.869Z,21.19
2017-04-21T02:44:41.172Z,21.19
2017-04-21T02:45:00.467Z,21.21
2017-04-21T02:45:18.714Z,21.12
2017-04-21T02:45:37.471Z,21.23
2017-04-21T02:45:56.722Z,21.17
2017-04-21T02:46:15.552Z,21.23
2017-04-21T02:46:34.314Z,21.21
2017-04-21T02:46:53.547Z,21.19
2017-04-21T02:47:12.791Z,21.2
2017-04-21T02:47:32.502Z,21.21
2017-04-21T02:47:51.770Z,21.21
2017-04-21T02:48:11.022Z,21.21
2017-04-21T02:48:30.299Z,21.21
2017-04-21T02:48:49.560Z,21.23
2017-04-21T02:49:09.056Z,21.2
2017-04-21T02:49:28.313Z,21.2
2017-04-21T02:49:47.537Z,21.2
2017-04-21T02:50:06.791Z,21.08
2017-04-21T02:50:26.092Z,21.05
2017-04-21T02:50:45.380Z,21.19
2017-04-21T02:51:04.119Z,21.09
2017-04-21T02:51:23.371Z,21.09
2017-04-21T02:51:42.620Z,21.19
2017-04-21T02:52:02.094Z,21.11
2017-04-21T02:52:20.870Z,21.19
2017-04-21T02:52:40.134Z,21.14
2017-04-21T02:52:59.420Z,21.19
2017-04-21T02:53:18.666Z,21.2
2017-04-21T02:53:37.933Z,21.21
2017-04-21T02:53:56.702Z,21.23
2017-04-21T02:54:16.163Z,21.24
2017-04-21T02:54:34.952Z,21.2
2017-04-21T02:54:54.202Z,21.23
2017-04-21T02:55:13.502Z,21.08
2017-04-21T02:55:32.393Z,21.09
2017-04-21T02:55:51.153Z,21.14
2017-04-21T02:56:10.405Z,21.11
2017-04-21T02:56:29.737Z,21.2
2017-04-21T02:56:48.982Z,21.17
2017-04-21T02:57:08.263Z,21.24
2017-04-21T02:57:26.990Z,21.16
2017-04-21T02:57:46.545Z,21.11
2017-04-21T02:58:05.806Z,21.11
2017-04-21T02:58:25.076Z,21.17
2017-04-21T02:58:44.352Z,21.17
2017-04-21T02:59:03.614Z,21.11
2017-04-21T02:59:22.882Z,21.12
2017-04-21T02:59:42.167Z,21.11
2017-04-21T03:00:00.936Z,21.19
2017-04-21T03:00:19.679Z,21.11
2017-04-21T03:00:38.937Z,21.11
2017-04-21T03:00:58.186Z,21.09
2017-04-21T03:01:17.422Z,21.2
2017-04-21T03:01:36.710Z,21.16
2017-04-21T03:01:55.450Z,21.06
2017-04-21T03:02:14.214Z,21.06
2017-04-21T03:02:33.478Z,21.11
2017-04-21T03:02:52.780Z,21.08
2017-04-21T03:03:11.912Z,21.11
2017-04-21T03:03:31.208Z,21.09
2017-04-21T03:03:50.468Z,21.05
2017-04-21T03:04:08.696Z,21.23
2017-04-21T03:04:27.975Z,21.14
2017-04-21T03:04:46.703Z,21.08
2017-04-21T03:05:05.970Z,21.19
2017-04-21T03:05:25.231Z,21.09
2017-04-21T03:05:44.511Z,21.23
2017-04-21T03:06:03.808Z,21.21
2017-04-21T03:06:23.086Z,21.21
2017-04-21T03:06:42.378Z,21.09
2017-04-21T03:07:01.656Z,21.16
2017-04-21T03:07:20.953Z,21.09
2017-04-21T03:07:40.223Z,21.16
2017-04-21T03:07:59.549Z,21.12
2017-04-21T03:08:18.525Z,21.05
2017-04-21T03:08:37.796Z,21.08
2017-04-21T03:08:57.109Z,21.06
2017-04-21T03:09:16.397Z,21.12
2017-04-21T03:09:35.657Z,21.05
2017-04-21T03:09:54.903Z,21.2
2017-04-21T03:10:13.778Z,21.14
2017-04-21T03:10:33.061Z,21.21
2017-04-21T03:10:52.322Z,21.06
2017-04-21T03:11:11.578Z,21.11
2017-04-21T03:11:30.854Z,21.12
2017-04-21T03:11:50.119Z,21.12
2017-04-21T03:12:09.396Z,21.05
2017-04-21T03:12:28.648Z,21.16
2017-04-21T03:12:47.926Z,21.12
2017-04-21T03:13:07.410Z,21.08
2017-04-21T03:13:26.184Z,21.16
2017-04-21T03:13:45.474Z,21.08
2017-04-21T03:14:04.770Z,21.11
2017-04-21T03:14:24.063Z,21.06
2017-04-21T03:14:43.341Z,21.08
2017-04-21T03:15:02.600Z,21.06
2017-04-21T03:15:21.856Z,21.11
2017-04-21T03:15:41.122Z,21.08
2017-04-21T03:16:00.392Z,21.06
2017-04-21T03:16:18.677Z,21.16
2017-04-21T03:16:37.942Z,21.11
2017-04-21T03:16:57.214Z,20.99
2017-04-21T03:17:16.500Z,21.04
2017-04-21T03:17:35.797Z,21.06
2017-04-21T03:17:55.033Z,20.99
2017-04-21T03:18:14.587Z,20.96
2017-04-21T03:18:33.331Z,21.05
2017-04-21T03:18:52.659Z,20.99
2017-04-21T03:19:11.567Z,21.01
2017-04-21T03:19:30.835Z,21.01
2017-04-21T03:19:50.070Z,21.04
2017-04-21T03:20:09.324Z,21.01
2017-04-21T03:20:28.101Z,20.99
2017-04-21T03:20:47.385Z,20.98
2017-04-21T03:21:06.641Z,21.01
2017-04-21T03:21:25.895Z,20.99
2017-04-21T03:21:45.146Z,20.96
2017-04-21T03:22:04.414Z,20.98
2017-04-21T03:22:23.163Z,21.01
2017-04-21T03:22:42.453Z,20.91
2017-04-21T03:23:02.169Z,21.02
2017-04-21T03:23:21.438Z,20.99
2017-04-21T03:23:40.837Z,20.96
2017-04-21T03:24:00.114Z,21.02
2017-04-21T03:24:19.393Z,21.01
2017-04-21T03:24:38.687Z,21.01
2017-04-21T03:24:57.937Z,21.01
2017-04-21T03:25:17.177Z,20.96
2017-04-21T03:25:36.482Z,20.99
2017-04-21T03:25:55.729Z,20.94
2017-04-21T03:26:14.955Z,20.99
2017-04-21T03:26:33.730Z,20.96
2017-04-21T03:26:52.999Z,21.01
2017-04-21T03:27:12.299Z,20.94
2017-04-21T03:27:31.536Z,20.99
2017-04-21T03:27:50.768Z,21.04
2017-04-21T03:28:10.064Z,20.94
2017-04-21T03:28:29.330Z,20.98
2017-04-21T03:28:48.675Z,20.99
2017-04-21T03:29:07.957Z,20.98
2017-04-21T03:29:27.460Z,20.96
2017-04-21T03:29:46.742Z,20.96
2017-04-21T03:30:05.476Z,20.96
2017-04-21T03:30:24.749Z,20.96
2017-04-21T03:30:43.999Z,20.98
2017-04-21T03:31:02.257Z,20.93
2017-04-21T03:31:21.515Z,21.01
2017-04-21T03:31:40.921Z,20.96
2017-04-21T03:31:59.672Z,21.01
2017-04-21T03:32:18.446Z,20.99
2017-04-21T03:32:37.705Z,21.01
2017-04-21T03:32:56.469Z,20.94
2017-04-21T03:33:16.033Z,20.94
2017-04-21T03:33:34.791Z,20.91
2017-04-21T03:33:54.045Z,20.94
2017-04-21T03:34:12.295Z,20.94
2017-04-21T03:34:31.054Z,20.99
2017-04-21T03:34:50.293Z,20.91
2017-04-21T03:35:09.749Z,20.94
2017-04-21T03:35:28.998Z,20.94
2017-04-21T03:35:47.744Z,20.99
2017-04-21T03:36:07.285Z,20.89
2017-04-21T03:36:26.569Z,20.91
2017-04-21T03:36:45.811Z,20.94
2017-04-21T03:37:05.069Z,20.87
2017-04-21T03:37:23.850Z,20.83
2017-04-21T03:37:42.579Z,20.93
2017-04-21T03:38:01.853Z,20.86
2017-04-21T03:38:21.110Z,20.9
2017-04-21T03:38:40.412Z,20.84
2017-04-21T03:38:59.688Z,20.89
2017-04-21T03:39:19.010Z,20.93
2017-04-21T03:39:38.310Z,21.01
2017-04-21T03:39:57.577Z,20.84
2017-04-21T03:40:15.822Z,20.94
2017-04-21T03:40:34.079Z,20.9
2017-04-21T03:40:53.336Z,20.87
2017-04-21T03:41:12.600Z,20.94
2017-04-21T03:41:31.851Z,20.89
2017-04-21T03:41:51.103Z,20.93
2017-04-21T03:42:09.829Z,20.84
2017-04-21T03:42:28.595Z,20.87
2017-04-21T03:42:47.874Z,20.89
2017-04-21T03:43:07.339Z,20.82
2017-04-21T03:43:26.604Z,20.91
2017-04-21T03:43:45.892Z,20.96
2017-04-21T03:44:05.191Z,20.9
2017-04-21T03:44:24.482Z,20.91
2017-04-21T03:44:43.777Z,20.87
2017-04-21T03:45:03.037Z,20.9
2017-04-21T03:45:22.328Z,20.82
2017-04-21T03:45:41.613Z,20.89
2017-04-21T03:46:00.335Z,20.89
2017-04-21T03:46:19.744Z,20.82
2017-04-21T03:46:39.022Z,20.86
2017-04-21T03:46:58.301Z,20.82
2017-04-21T03:47:17.586Z,20.82
2017-04-21T03:47:37.019Z,20.76
2017-04-21T03:47:56.310Z,20.8
2017-04-21T03:48:16.079Z,20.83
2017-04-21T03:48:35.361Z,20.82
2017-04-21T03:48:54.101Z,20.82
2017-04-21T03:49:13.378Z,20.87
2017-04-21T03:49:32.659Z,20.82
2017-04-21T03:49:51.939Z,20.84
2017-04-21T03:50:11.221Z,20.79
2017-04-21T03:50:30.533Z,20.79
2017-04-21T03:50:49.807Z,20.8
2017-04-21T03:51:09.160Z,20.82
2017-04-21T03:51:28.442Z,20.83
2017-04-21T03:51:47.731Z,20.79
2017-04-21T03:52:06.497Z,20.79
2017-04-21T03:52:25.270Z,20.79
2017-04-21T03:52:44.540Z,20.82
2017-04-21T03:53:03.814Z,20.82
2017-04-21T03:53:22.726Z,20.83
2017-04-21T03:53:42.018Z,20.75
2017-04-21T03:54:01.293Z,20.8
2017-04-21T03:54:20.572Z,20.72
2017-04-21T03:54:39.865Z,20.84
2017-04-21T03:54:59.113Z,20.74
2017-04-21T03:55:18.393Z,20.84
2017-04-21T03:55:37.683Z,20.79
2017-04-21T03:55:56.964Z,20.83
2017-04-21T03:56:15.677Z,20.8
2017-04-21T03:56:34.913Z,20.82
2017-04-21T03:56:54.977Z,20.72
2017-04-21T03:57:14.284Z,20.79
2017-04-21T03:57:33.545Z,20.8
2017-04-21T03:57:52.309Z,20.72
2017-04-21T03:58:11.575Z,20.75
2017-04-21T03:58:30.862Z,20.75
2017-04-21T03:58:50.212Z,20.74
2017-04-21T03:59:09.486Z,20.74
2017-04-21T03:59:28.769Z,20.75
2017-04-21T03:59:48.044Z,20.74
2017-04-21T04:00:07.306Z,20.76
2017-04-21T04:00:26.587Z,20.76
2017-04-21T04:00:45.871Z,20.74
2017-04-21T04:01:05.183Z,20.79
2017-04-21T04:01:24.480Z,20.74
2017-04-21T04:01:43.764Z,20.74
2017-04-21T04:02:03.034Z,20.66
2017-04-21T04:02:22.326Z,20.66
2017-04-21T04:02:41.079Z,20.69
2017-04-21T04:03:00.371Z,20.66
2017-04-21T04:03:19.642Z,20.71
2017-04-21T04:03:38.967Z,20.62
2017-04-21T04:03:58.215Z,20.65
2017-04-21T04:04:17.517Z,20.72
2017-04-21T04:04:36.810Z,20.76
2017-04-21T04:04:56.088Z,20.68
2017-04-21T04:05:15.380Z,20.68
2017-04-21T04:05:34.743Z,20.64
2017-04-21T04:05:53.970Z,20.76
2017-04-21T04:06:13.241Z,20.59
2017-04-21T04:06:32.557Z,20.65
2017-04-21T04:06:51.313Z,20.57
2017-04-21T04:07:10.549Z,20.65
2017-04-21T04:07:29.797Z,20.68
2017-04-21T04:07:49.069Z,20.68